createdAt,value
2023-01-29T00:00:20.637Z,32.49
2023-01-29T00:02:47.133Z,32.42
2023-01-29T00:05:27.087Z,32.53
2023-01-29T04:09:29.262Z,32.53
2023-01-29T04:11:55.697Z,32.38
2023-01-29T04:14:22.091Z,32.37
2023-01-29T04:16:48.592Z,32.46
2023-01-29T04:19:15.032Z,32.56
2023-01-29T04:21:41.439Z,32.51
2023-01-29T04:24:07.830Z,32.43
2023-01-29T04:26:34.220Z,32.53
2023-01-29T04:29:00.607Z,32.36
2023-01-29T04:31:27.093Z,32.33
2023-01-29T04:33:53.558Z,32.36
2023-01-29T04:36:19.945Z,32.46
2023-01-29T04:38:46.342Z,32.26
2023-01-29T04:41:12.729Z,32.51
2023-01-29T04:43:39.103Z,32.72
2023-01-29T04:46:05.473Z,32.76
2023-01-29T04:48:31.851Z,32.55
2023-01-29T04:50:58.213Z,32.38
2023-01-29T04:53:24.586Z,32.56
2023-01-29T04:55:50.980Z,32.52
2023-01-29T04:58:17.470Z,32.68
2023-01-29T05:00:43.889Z,32.46
2023-01-29T05:03:10.262Z,32.61
2023-01-29T05:05:36.743Z,32.62
2023-01-29T05:08:03.135Z,32.64
2023-01-29T05:10:29.505Z,32.71
2023-01-29T05:12:55.897Z,32.46
2023-01-29T05:15:22.277Z,32.49
2023-01-29T05:17:48.665Z,32.54
2023-01-29T05:20:15.383Z,32.59
2023-01-29T05:22:41.925Z,32.43
2023-01-29T05:25:08.305Z,32.60
2023-01-29T05:27:34.685Z,32.71
2023-01-29T05:30:01.071Z,32.50
2023-01-29T05:32:27.457Z,32.59
2023-01-29T05:34:53.846Z,32.71
2023-01-29T05:37:20.234Z,32.61
2023-01-29T05:39:46.634Z,32.60
2023-01-29T05:42:13.028Z,32.69
2023-01-29T05:44:39.408Z,32.78
2023-01-29T05:47:05.769Z,32.67
2023-01-29T05:49:32.153Z,32.60
2023-01-29T05:51:58.535Z,32.51
2023-01-29T05:54:24.901Z,32.65
2023-01-29T05:56:51.277Z,32.61
2023-01-29T05:59:17.661Z,32.50
2023-01-29T06:01:44.063Z,32.71
2023-01-29T06:04:10.571Z,32.49
2023-01-29T06:06:36.941Z,32.53
2023-01-29T06:09:03.344Z,32.55
2023-01-29T06:11:29.731Z,32.64
2023-01-29T06:13:56.138Z,32.60
2023-01-29T06:16:22.560Z,32.45
2023-01-29T06:18:48.983Z,32.51
2023-01-29T06:21:15.399Z,32.46
2023-01-29T06:23:41.928Z,32.44
2023-01-29T06:26:08.306Z,32.70
2023-01-29T06:28:34.720Z,32.74
2023-01-29T06:31:11.382Z,32.47
2023-01-29T06:33:47.480Z,32.53
2023-01-29T06:36:13.870Z,32.61
2023-01-29T06:38:40.245Z,32.53
2023-01-29T06:41:06.626Z,32.54
2023-01-29T06:43:33.005Z,32.43
2023-01-29T06:45:59.434Z,32.46
2023-01-29T06:48:25.886Z,32.43
2023-01-29T06:50:52.277Z,32.47
2023-01-29T06:53:18.675Z,32.35
2023-01-29T06:55:45.047Z,32.57
2023-01-29T06:58:11.437Z,32.74
2023-01-29T07:00:37.824Z,32.32
2023-01-29T07:03:04.231Z,31.95
2023-01-29T07:05:30.638Z,31.64
2023-01-29T07:07:57.023Z,31.67
2023-01-29T07:10:23.409Z,31.84
2023-01-29T07:12:49.787Z,31.99
2023-01-29T07:15:16.186Z,32.01
2023-01-29T07:17:42.670Z,32.14
2023-01-29T07:20:09.063Z,31.96
2023-01-29T07:22:35.454Z,32.33
2023-01-29T07:25:01.835Z,32.04
2023-01-29T07:27:28.250Z,32.27
2023-01-29T07:29:54.626Z,32.19
2023-01-29T07:32:21.061Z,32.13
2023-01-29T07:34:47.454Z,32.21
2023-01-29T07:37:13.824Z,32.05
2023-01-29T07:39:40.199Z,31.92
2023-01-29T07:42:06.581Z,32.16
2023-01-29T07:44:32.975Z,32.40
2023-01-29T07:46:59.377Z,32.35
2023-01-29T07:49:25.770Z,32.08
2023-01-29T07:51:52.151Z,31.98
2023-01-29T07:54:18.551Z,32.20
2023-01-29T07:56:44.940Z,32.25
2023-01-29T07:59:11.306Z,32.28
2023-01-29T08:01:37.707Z,32.36
2023-01-29T08:04:04.094Z,32.58
2023-01-29T08:06:30.565Z,32.40
2023-01-29T08:08:56.949Z,32.36
2023-01-29T08:11:23.325Z,32.36
2023-01-29T08:13:49.715Z,32.42
2023-01-29T08:16:16.201Z,32.55
2023-01-29T08:18:42.619Z,32.59
2023-01-29T08:21:08.994Z,32.52
2023-01-29T08:23:35.393Z,32.49
2023-01-29T08:26:01.898Z,32.47
2023-01-29T08:28:28.346Z,32.60
2023-01-29T08:30:54.804Z,32.59
2023-01-29T08:33:29.767Z,32.60
2023-01-29T08:35:59.882Z,32.76
2023-01-29T08:38:26.277Z,32.86
2023-01-29T08:40:52.691Z,32.85
2023-01-29T08:43:19.074Z,32.85
2023-01-29T08:45:45.475Z,32.86
2023-01-29T08:48:11.865Z,32.97
2023-01-29T08:50:38.272Z,32.76
2023-01-29T08:53:04.670Z,32.96
2023-01-29T08:55:31.051Z,32.90
2023-01-29T08:57:57.454Z,32.87
2023-01-29T09:00:23.852Z,33.05
2023-01-29T09:02:50.297Z,33.42
2023-01-29T09:05:16.946Z,32.99
2023-01-29T09:07:43.508Z,33.27
2023-01-29T09:10:09.907Z,33.15
2023-01-29T09:12:36.300Z,33.24
2023-01-29T09:15:02.685Z,33.48
2023-01-29T09:17:29.098Z,33.41
2023-01-29T09:19:55.496Z,33.20
2023-01-29T09:22:21.905Z,33.12
2023-01-29T09:24:48.288Z,33.04
2023-01-29T09:27:14.692Z,33.21
2023-01-29T09:29:41.074Z,33.27
2023-01-29T09:32:07.455Z,33.46
2023-01-29T09:34:33.849Z,33.46
2023-01-29T09:37:00.304Z,33.56
2023-01-29T09:39:26.685Z,33.83
2023-01-29T09:41:53.078Z,33.71
2023-01-29T09:44:19.465Z,33.52
2023-01-29T09:46:45.858Z,33.60
2023-01-29T09:49:12.262Z,33.49
2023-01-29T09:51:38.653Z,33.81
2023-01-29T09:54:05.042Z,34.01
2023-01-29T09:56:31.514Z,33.65
2023-01-29T09:59:00.426Z,33.66
2023-01-29T10:01:27.049Z,33.64
2023-01-29T10:03:53.479Z,33.50
2023-01-29T10:06:19.869Z,33.37
2023-01-29T10:08:46.284Z,34.14
2023-01-29T10:11:12.704Z,34.09
2023-01-29T10:13:39.085Z,34.14
2023-01-29T10:16:05.476Z,34.41
2023-01-29T10:18:31.874Z,34.42
2023-01-29T10:20:58.281Z,34.79
2023-01-29T10:23:24.676Z,34.90
2023-01-29T10:25:51.078Z,35.28
2023-01-29T10:28:17.465Z,35.43
2023-01-29T10:30:43.949Z,35.59
2023-01-29T10:33:10.423Z,35.32
2023-01-29T10:35:36.820Z,35.50
2023-01-29T10:38:03.215Z,35.67
2023-01-29T10:40:29.646Z,34.99
2023-01-29T10:42:56.049Z,35.01
2023-01-29T10:45:22.537Z,35.31
2023-01-29T10:47:49.114Z,33.09
2023-01-29T10:50:15.658Z,34.53
2023-01-29T10:52:42.043Z,34.16
2023-01-29T10:55:08.458Z,34.64
2023-01-29T10:57:34.842Z,34.15
2023-01-29T11:00:01.237Z,34.22
2023-01-29T11:02:27.672Z,34.15
2023-01-29T11:04:54.100Z,33.69
2023-01-29T11:07:20.494Z,33.53
2023-01-29T11:09:46.911Z,33.76
2023-01-29T11:12:13.298Z,34.09
2023-01-29T11:14:39.691Z,34.58
2023-01-29T11:17:06.117Z,35.44
2023-01-29T11:19:32.524Z,35.77
2023-01-29T11:21:58.927Z,36.68
2023-01-29T11:24:25.344Z,36.72
2023-01-29T11:26:51.749Z,36.41
2023-01-29T11:29:18.227Z,36.43
2023-01-29T11:31:44.674Z,36.10
2023-01-29T11:34:11.110Z,36.19
2023-01-29T11:36:37.514Z,36.32
2023-01-29T11:39:03.906Z,36.08
2023-01-29T11:41:30.304Z,35.94
2023-01-29T11:43:56.693Z,35.68
2023-01-29T11:46:23.118Z,35.80
2023-01-29T11:48:49.538Z,35.91
2023-01-29T11:51:15.947Z,35.66
2023-01-29T11:53:42.356Z,36.15
2023-01-29T11:56:08.756Z,35.79
2023-01-29T11:58:35.168Z,36.29
2023-01-29T12:01:01.769Z,35.85
2023-01-29T12:03:28.238Z,35.57
2023-01-29T12:05:54.730Z,35.42
2023-01-29T12:08:21.184Z,35.12
2023-01-29T12:10:47.565Z,35.19
2023-01-29T12:13:13.936Z,35.25
2023-01-29T12:15:40.339Z,35.38
2023-01-29T12:18:06.744Z,35.11
2023-01-29T12:20:33.134Z,35.07
2023-01-29T12:22:59.551Z,34.96
2023-01-29T12:25:25.949Z,35.00
2023-01-29T12:27:52.321Z,35.16
2023-01-29T12:30:19.076Z,35.01
2023-01-29T12:32:45.645Z,35.01
2023-01-29T12:35:12.045Z,35.03
2023-01-29T12:37:38.440Z,34.94
2023-01-29T12:40:04.832Z,34.75
2023-01-29T12:42:31.210Z,34.99
2023-01-29T12:44:57.599Z,34.81
2023-01-29T12:47:23.997Z,34.80
2023-01-29T12:49:50.389Z,34.73
2023-01-29T12:52:16.796Z,34.66
2023-01-29T12:54:43.183Z,34.53
2023-01-29T12:57:09.564Z,34.52
2023-01-29T12:59:35.946Z,34.62
2023-01-29T13:02:02.358Z,34.43
2023-01-29T13:04:28.769Z,34.55
2023-01-29T13:06:55.199Z,34.60
2023-01-29T13:09:21.610Z,34.45
2023-01-29T13:11:48.001Z,34.57
2023-01-29T13:14:14.381Z,34.43
2023-01-29T13:16:40.841Z,34.54
2023-01-29T13:19:07.246Z,34.38
2023-01-29T13:21:33.641Z,34.58
2023-01-29T13:24:00.051Z,34.36
2023-01-29T13:26:26.506Z,34.46
2023-01-29T13:28:52.949Z,34.36
2023-01-29T13:31:19.339Z,34.39
2023-01-29T13:33:45.729Z,34.51
2023-01-29T13:36:12.134Z,34.40
2023-01-29T13:38:38.556Z,34.30
2023-01-29T13:41:04.935Z,34.35
2023-01-29T13:43:31.401Z,34.22
2023-01-29T13:45:57.902Z,34.42
2023-01-29T13:48:24.289Z,34.42
2023-01-29T13:50:50.678Z,34.21
2023-01-29T13:53:17.061Z,34.17
2023-01-29T13:55:43.596Z,34.25
2023-01-29T13:58:09.973Z,34.14
2023-01-29T14:00:36.352Z,34.30
2023-01-29T14:03:02.749Z,34.25
2023-01-29T14:05:29.158Z,34.29
2023-01-29T14:07:55.541Z,34.22
2023-01-29T14:10:21.946Z,34.33
2023-01-29T14:12:48.346Z,34.37
2023-01-29T14:15:15.311Z,34.17
2023-01-29T14:17:42.413Z,34.05
2023-01-29T14:20:08.805Z,34.22
2023-01-29T14:22:35.191Z,34.43
2023-01-29T14:25:01.601Z,34.05
2023-01-29T14:27:28.004Z,34.15
2023-01-29T14:29:54.406Z,33.92
2023-01-29T14:32:20.791Z,34.00
2023-01-29T14:34:47.194Z,34.07
2023-01-29T14:37:13.589Z,34.25
2023-01-29T14:39:39.993Z,34.24
2023-01-29T14:42:06.404Z,34.08
2023-01-29T14:44:32.792Z,34.21
2023-01-29T14:46:59.201Z,34.23
2023-01-29T14:49:25.573Z,34.34
2023-01-29T14:51:51.978Z,34.06
2023-01-29T14:54:18.413Z,34.06
2023-01-29T14:56:44.788Z,33.98
2023-01-29T14:59:11.239Z,34.05
2023-01-29T15:01:37.720Z,33.65
2023-01-29T15:04:04.148Z,33.27
2023-01-29T15:06:30.557Z,33.06
2023-01-29T15:08:56.954Z,33.22
2023-01-29T15:11:23.338Z,33.12
2023-01-29T15:13:49.752Z,33.29
2023-01-29T15:16:16.184Z,33.42
2023-01-29T15:18:42.637Z,33.63
2023-01-29T15:21:09.017Z,33.66
2023-01-29T15:23:35.418Z,33.77
2023-01-29T15:26:01.833Z,33.52
2023-01-29T15:28:28.267Z,34.02
2023-01-29T15:30:54.685Z,34.19
2023-01-29T15:33:21.117Z,34.47
2023-01-29T15:35:49.909Z,34.59
2023-01-29T15:38:16.412Z,34.58
2023-01-29T15:40:42.803Z,34.74
2023-01-29T15:43:09.305Z,34.47
2023-01-29T15:45:35.699Z,34.82
2023-01-29T15:48:02.093Z,34.89
2023-01-29T15:50:28.512Z,35.02
2023-01-29T15:52:54.910Z,35.13
2023-01-29T15:55:21.302Z,35.40
2023-01-29T15:57:47.681Z,35.31
2023-01-29T16:00:14.079Z,35.36
2023-01-29T16:02:40.585Z,35.53
2023-01-29T16:05:06.978Z,35.32
2023-01-29T16:07:33.361Z,35.47
2023-01-29T16:09:59.821Z,35.75
2023-01-29T16:12:26.251Z,35.49
2023-01-29T16:14:52.649Z,35.76
2023-01-29T16:17:19.046Z,35.78
2023-01-29T16:19:45.447Z,35.62
2023-01-29T16:22:11.851Z,35.69
2023-01-29T16:24:38.229Z,35.82
2023-01-29T16:27:04.633Z,36.15
2023-01-29T16:29:31.043Z,35.99
2023-01-29T16:31:57.456Z,36.03
2023-01-29T16:34:23.830Z,36.13
2023-01-29T16:36:50.231Z,36.04
2023-01-29T16:39:16.625Z,36.02
2023-01-29T16:41:43.029Z,35.80
2023-01-29T16:44:09.424Z,36.04
2023-01-29T16:46:35.897Z,35.94
2023-01-29T16:49:02.311Z,36.12
2023-01-29T16:51:28.718Z,36.06
2023-01-29T16:53:55.234Z,36.15
2023-01-29T16:56:21.641Z,36.32
2023-01-29T16:58:48.053Z,36.27
2023-01-29T17:01:14.469Z,36.20
2023-01-29T17:03:40.934Z,36.28
2023-01-29T17:06:07.434Z,36.31
2023-01-29T17:08:33.817Z,36.32
2023-01-29T17:11:00.208Z,36.34
2023-01-29T17:13:26.599Z,36.48
2023-01-29T17:15:53.052Z,36.41
2023-01-29T17:18:19.448Z,36.53
2023-01-29T17:20:45.876Z,36.04
2023-01-29T17:23:12.268Z,36.51
2023-01-29T17:25:38.644Z,36.50
2023-01-29T17:28:05.024Z,36.44
2023-01-29T17:30:31.505Z,36.42
2023-01-29T17:32:57.895Z,36.54
2023-01-29T17:35:24.302Z,36.80
2023-01-29T17:37:50.730Z,36.93
2023-01-29T17:40:17.142Z,36.98
2023-01-29T17:42:43.529Z,36.40
2023-01-29T17:45:09.902Z,36.84
2023-01-29T17:47:36.324Z,37.00
2023-01-29T17:50:02.729Z,36.81
2023-01-29T17:52:29.139Z,36.87
2023-01-29T17:54:55.528Z,36.81
2023-01-29T17:57:21.921Z,36.87
2023-01-29T17:59:48.310Z,36.98
2023-01-29T18:02:29.669Z,36.87
2023-01-29T18:04:56.379Z,36.99
2023-01-29T18:07:22.819Z,37.02
2023-01-29T18:09:49.241Z,36.94
2023-01-29T18:12:15.618Z,36.97
2023-01-29T18:14:41.991Z,37.16
2023-01-29T18:17:08.389Z,37.05
2023-01-29T18:19:34.772Z,37.05
2023-01-29T18:22:01.157Z,36.96
2023-01-29T18:24:27.561Z,36.92
2023-01-29T18:26:53.971Z,36.91
2023-01-29T18:29:20.386Z,37.07
2023-01-29T18:31:46.789Z,37.16
2023-01-29T18:34:13.196Z,37.03
2023-01-29T18:36:39.602Z,36.96
2023-01-29T18:39:05.979Z,37.06
2023-01-29T18:41:32.383Z,37.23
2023-01-29T18:43:58.777Z,37.21
2023-01-29T18:46:25.180Z,37.24
2023-01-29T18:48:51.589Z,37.01
2023-01-29T18:51:18.061Z,37.23
2023-01-29T18:53:46.521Z,37.06
2023-01-29T18:56:13.594Z,37.17
2023-01-29T18:58:40.000Z,37.27
2023-01-29T19:01:06.414Z,37.21
2023-01-29T19:03:32.904Z,37.08
2023-01-29T19:05:59.296Z,37.18
2023-01-29T19:08:25.706Z,37.08
2023-01-29T19:10:52.105Z,37.05
2023-01-29T19:13:18.487Z,37.09
2023-01-29T19:15:44.887Z,37.06
2023-01-29T19:18:13.076Z,37.05
2023-01-29T19:20:40.847Z,36.96
2023-01-29T19:23:07.260Z,36.88
2023-01-29T19:25:33.676Z,36.94
2023-01-29T19:28:00.079Z,37.00
2023-01-29T19:30:26.521Z,36.91
2023-01-29T19:32:52.960Z,36.98
2023-01-29T19:35:19.750Z,37.03
2023-01-29T19:37:46.327Z,37.02
2023-01-29T19:40:12.698Z,37.02
2023-01-29T19:42:39.116Z,37.30
2023-01-29T19:45:05.525Z,37.20
2023-01-29T19:47:31.957Z,37.08
2023-01-29T19:49:58.354Z,37.07
2023-01-29T19:52:24.733Z,36.92
2023-01-29T19:54:51.094Z,37.13
2023-01-29T19:57:17.478Z,37.33
2023-01-29T19:59:45.904Z,36.94
2023-01-29T20:02:12.523Z,36.65
2023-01-29T20:04:38.979Z,37.12
2023-01-29T20:07:05.361Z,36.95
2023-01-29T20:09:31.723Z,37.04
2023-01-29T20:11:58.139Z,36.61
2023-01-29T20:14:24.538Z,36.76
2023-01-29T20:16:50.927Z,36.79
2023-01-29T20:19:17.312Z,36.80
2023-01-29T20:21:45.035Z,36.71
2023-01-29T20:24:12.534Z,36.87
2023-01-29T20:26:38.991Z,36.91
2023-01-29T20:29:05.487Z,37.03
2023-01-29T20:31:31.894Z,37.18
2023-01-29T20:33:58.312Z,37.24
2023-01-29T20:36:24.698Z,37.18
2023-01-29T20:38:51.090Z,37.15
2023-01-29T20:41:17.480Z,36.98
2023-01-29T20:43:43.875Z,37.03
2023-01-29T20:46:10.346Z,37.10
2023-01-29T20:48:36.805Z,36.95
2023-01-29T20:51:03.254Z,37.15
2023-01-29T20:53:29.652Z,37.21
2023-01-29T20:55:56.112Z,37.08
2023-01-29T20:58:22.677Z,36.96
2023-01-29T21:00:49.059Z,36.88
2023-01-29T21:03:15.497Z,37.08
2023-01-29T21:05:41.866Z,36.93
2023-01-29T21:08:08.249Z,36.71
2023-01-29T21:10:34.634Z,36.90
2023-01-29T21:13:01.022Z,37.15
2023-01-29T21:15:27.514Z,37.10
2023-01-29T21:17:53.920Z,37.14
2023-01-29T21:20:20.329Z,37.17
2023-01-29T21:22:46.722Z,37.07
2023-01-29T21:25:13.085Z,37.16
2023-01-29T21:27:39.474Z,36.92
2023-01-29T21:30:05.860Z,36.99
2023-01-29T21:32:32.265Z,36.83
2023-01-29T21:34:58.665Z,37.11
2023-01-29T21:37:25.060Z,36.99
2023-01-29T21:39:51.470Z,36.88
2023-01-29T21:42:17.842Z,36.86
2023-01-29T21:44:44.238Z,37.18
2023-01-29T21:47:10.619Z,36.72
2023-01-29T21:49:37.016Z,36.86
2023-01-29T21:52:03.418Z,36.69
2023-01-29T21:54:29.791Z,36.63
2023-01-29T21:56:56.192Z,36.80
2023-01-29T21:59:22.594Z,36.96
2023-01-29T22:01:49.008Z,36.78
2023-01-29T22:04:15.433Z,37.10
2023-01-29T22:06:41.846Z,37.04
2023-01-29T22:09:08.236Z,36.66
2023-01-29T22:11:34.670Z,36.35
2023-01-29T22:14:01.147Z,36.53
2023-01-29T22:16:27.531Z,36.30
2023-01-29T22:18:53.910Z,36.99
2023-01-29T22:21:20.301Z,36.80
2023-01-29T22:23:46.682Z,36.87
2023-01-29T22:26:13.070Z,36.94
2023-01-29T22:28:39.470Z,37.37
2023-01-29T22:31:05.857Z,37.14
2023-01-29T22:33:32.247Z,37.15
2023-01-29T22:35:58.653Z,37.12
2023-01-29T22:38:25.057Z,37.13
2023-01-29T22:40:51.450Z,37.21
2023-01-29T22:43:17.842Z,37.12
2023-01-29T22:45:44.218Z,37.02
2023-01-29T22:48:10.613Z,37.43
2023-01-29T22:50:36.995Z,37.32
2023-01-29T22:53:03.383Z,37.29
2023-01-29T22:55:29.777Z,37.37
2023-01-29T22:57:56.149Z,37.43
2023-01-29T23:00:22.573Z,37.35
2023-01-29T23:02:48.977Z,37.55
2023-01-29T23:05:15.357Z,37.38
2023-01-29T23:07:41.729Z,37.24
2023-01-29T23:10:08.094Z,37.57
2023-01-29T23:12:34.484Z,37.74
2023-01-29T23:15:00.887Z,37.52
2023-01-29T23:17:27.293Z,37.52
2023-01-29T23:19:53.678Z,37.46
2023-01-29T23:22:20.068Z,37.81
2023-01-29T23:24:46.533Z,37.75
2023-01-29T23:27:12.921Z,37.82
2023-01-29T23:29:39.328Z,37.42
2023-01-29T23:32:05.736Z,37.60
2023-01-29T23:34:32.120Z,37.53
2023-01-29T23:36:58.501Z,37.56
2023-01-29T23:39:24.885Z,37.52
2023-01-29T23:41:51.257Z,37.64
2023-01-29T23:44:17.629Z,37.42
2023-01-29T23:46:44.127Z,37.47
2023-01-29T23:49:10.501Z,37.44
2023-01-29T23:51:36.947Z,37.50
2023-01-29T23:54:03.342Z,37.47
2023-01-29T23:56:29.743Z,37.37
2023-01-29T23:58:56.169Z,37.31
